createdAt,value
2022-07-25T00:00:32.073Z,68.21
2022-07-25T00:01:32.109Z,68.91
2022-07-25T00:02:32.040Z,68.64
2022-07-25T00:03:32.175Z,67.83
2022-07-25T00:04:32.107Z,67.23
2022-07-25T00:05:37.346Z,68.13
2022-07-25T00:06:32.990Z,67.13
2022-07-25T00:07:31.974Z,68.04
2022-07-25T00:08:31.962Z,66.62
2022-07-25T00:09:31.969Z,70.26
2022-07-25T00:10:31.930Z,68.04
2022-07-25T00:11:31.951Z,68.44
2022-07-25T00:12:31.941Z,68.74
2022-07-25T00:13:31.902Z,69.04
2022-07-25T00:14:31.890Z,68.95
2022-07-25T00:15:31.944Z,69.75
2022-07-25T00:16:31.990Z,70.79
2022-07-25T00:17:31.842Z,69.48
2022-07-25T00:18:31.819Z,71.10
2022-07-25T00:19:31.868Z,69.58
2022-07-25T00:20:31.925Z,69.48
2022-07-25T00:21:31.822Z,68.37
2022-07-25T00:22:31.793Z,69.48
2022-07-25T00:23:31.760Z,70.49
2022-07-25T00:24:31.751Z,70.79
2022-07-25T00:25:31.747Z,72.61
2022-07-25T00:26:34.443Z,71.50
2022-07-25T00:27:32.737Z,70.39
2022-07-25T00:28:32.372Z,69.18
2022-07-25T00:29:31.692Z,68.98
2022-07-25T00:30:31.686Z,69.18
2022-07-25T00:31:31.723Z,68.87
2022-07-25T00:32:31.640Z,68.57
2022-07-25T00:33:31.621Z,68.37
2022-07-25T00:34:31.627Z,69.98
2022-07-25T00:35:31.600Z,70.29
2022-07-25T00:36:31.581Z,69.78
2022-07-25T00:37:31.571Z,68.87
2022-07-25T00:38:31.552Z,69.28
2022-07-25T00:39:31.552Z,68.17
2022-07-25T00:40:31.531Z,68.98
2022-07-25T00:41:31.524Z,69.38
2022-07-25T00:42:31.501Z,68.87
2022-07-25T00:43:31.540Z,67.36
2022-07-25T00:44:31.482Z,67.56
2022-07-25T00:45:31.471Z,68.17
2022-07-25T00:46:31.524Z,67.29
2022-07-25T00:47:31.437Z,68.80
2022-07-25T00:48:31.482Z,68.30
2022-07-25T00:49:31.420Z,68.20
2022-07-25T00:50:31.406Z,68.40
2022-07-25T00:51:31.392Z,70.02
2022-07-25T00:52:31.361Z,69.92
2022-07-25T00:53:31.372Z,68.40
2022-07-25T00:54:31.351Z,69.51
2022-07-25T00:55:31.341Z,68.51
2022-07-25T00:56:31.313Z,70.83
2022-07-25T00:57:31.314Z,70.12
2022-07-25T00:58:31.281Z,68.71
2022-07-25T00:59:31.294Z,68.30
2022-07-25T01:00:31.259Z,67.60
2022-07-25T01:01:31.266Z,70.12
2022-07-25T01:02:31.337Z,69.92
2022-07-25T01:03:31.214Z,69.62
2022-07-25T01:04:31.228Z,69.14
2022-07-25T01:05:31.192Z,68.63
2022-07-25T01:06:31.179Z,68.84
2022-07-25T01:07:31.164Z,69.55
2022-07-25T01:08:31.154Z,67.72
2022-07-25T01:09:31.170Z,67.32
2022-07-25T01:10:31.159Z,68.94
2022-07-25T01:11:31.141Z,69.55
2022-07-25T01:12:31.094Z,68.13
2022-07-25T01:13:31.083Z,67.43
2022-07-25T01:14:31.148Z,67.63
2022-07-25T01:15:31.116Z,68.13
2022-07-25T01:16:31.041Z,70.36
2022-07-25T01:17:31.072Z,70.15
2022-07-25T01:18:31.057Z,73.59
2022-07-25T01:19:31.019Z,71.06
2022-07-25T01:20:31.010Z,69.68
2022-07-25T01:21:30.985Z,69.78
2022-07-25T01:22:30.971Z,72.01
2022-07-25T01:23:30.950Z,71.09
2022-07-25T01:24:30.953Z,73.93
2022-07-25T01:25:30.932Z,72.01
2022-07-25T01:26:30.910Z,72.11
2022-07-25T01:27:30.956Z,70.69
2022-07-25T01:28:30.902Z,69.98
2022-07-25T01:29:30.870Z,70.18
2022-07-25T01:30:30.860Z,71.60
2022-07-25T01:31:30.865Z,69.98
2022-07-25T01:32:30.827Z,69.27
2022-07-25T01:33:30.815Z,70.18
2022-07-25T01:34:30.811Z,69.27
2022-07-25T01:35:30.789Z,71.20
2022-07-25T01:36:30.771Z,71.40
2022-07-25T01:37:30.751Z,71.09
2022-07-25T01:38:30.789Z,71.80
2022-07-25T01:39:30.745Z,69.81
2022-07-25T01:40:30.726Z,68.60
2022-07-25T01:41:30.704Z,70.52
2022-07-25T01:42:30.711Z,68.80
2022-07-25T01:43:30.680Z,68.60
2022-07-25T01:44:30.680Z,69.21
2022-07-25T01:45:30.701Z,70.22
2022-07-25T01:46:30.697Z,73.36
2022-07-25T01:47:30.619Z,71.73
2022-07-25T01:48:30.678Z,72.85
2022-07-25T01:49:30.620Z,72.34
2022-07-25T01:50:30.607Z,69.81
2022-07-25T01:51:30.561Z,69.21
2022-07-25T01:52:30.562Z,68.40
2022-07-25T01:53:30.541Z,70.62
2022-07-25T01:54:30.539Z,69.31
2022-07-25T01:55:30.542Z,71.03
2022-07-25T01:56:30.530Z,70.93
2022-07-25T01:57:30.896Z,70.52
2022-07-25T01:58:30.481Z,69.92
2022-07-25T01:59:30.470Z,70.42
2022-07-25T02:00:30.449Z,70.73
2022-07-25T02:01:30.491Z,68.70
2022-07-25T02:02:30.420Z,71.84
2022-07-25T02:03:30.442Z,71.44
2022-07-25T02:04:30.455Z,71.16
2022-07-25T02:05:30.382Z,71.57
2022-07-25T02:06:30.370Z,69.34
2022-07-25T02:07:30.350Z,69.95
2022-07-25T02:08:30.340Z,69.95
2022-07-25T02:09:30.340Z,69.14
2022-07-25T02:10:30.327Z,68.02
2022-07-25T02:11:30.327Z,71.26
2022-07-25T02:12:30.296Z,71.06
2022-07-25T02:13:30.279Z,69.95
2022-07-25T02:14:30.270Z,68.63
2022-07-25T02:15:30.249Z,71.26
2022-07-25T02:16:30.304Z,70.05
2022-07-25T02:17:30.306Z,68.43
2022-07-25T02:18:30.216Z,69.44
2022-07-25T02:19:30.201Z,70.86
2022-07-25T02:20:30.181Z,73.59
2022-07-25T02:21:30.169Z,71.67
2022-07-25T02:22:30.160Z,71.26
2022-07-25T02:23:30.142Z,69.85
2022-07-25T02:24:30.141Z,69.78
2022-07-25T02:25:30.111Z,70.79
2022-07-25T02:26:30.108Z,71.00
2022-07-25T02:27:30.120Z,71.40
2022-07-25T02:28:30.078Z,73.02
2022-07-25T02:29:30.070Z,70.69
2022-07-25T02:30:30.099Z,71.30
2022-07-25T02:31:30.031Z,71.40
2022-07-25T02:32:30.035Z,69.37
2022-07-25T02:33:30.023Z,69.48
2022-07-25T02:34:29.989Z,69.88
2022-07-25T02:35:29.979Z,70.08
2022-07-25T02:36:29.978Z,70.08
2022-07-25T02:37:29.949Z,72.92
2022-07-25T02:38:29.965Z,71.70
2022-07-25T02:39:29.946Z,71.60
2022-07-25T02:40:29.918Z,69.78
2022-07-25T02:41:29.905Z,68.66
2022-07-25T02:42:29.903Z,72.31
2022-07-25T02:43:29.890Z,69.78
2022-07-25T02:44:29.866Z,73.63
2022-07-25T02:45:29.849Z,72.61
2022-07-25T02:46:29.919Z,76.06
2022-07-25T02:47:29.820Z,77.07
2022-07-25T02:48:29.881Z,77.51
2022-07-25T02:49:29.805Z,74.98
2022-07-25T02:50:29.787Z,74.48
2022-07-25T02:51:29.776Z,72.96
2022-07-25T02:52:29.758Z,73.46
2022-07-25T02:53:54.878Z,74.77
2022-07-25T02:54:30.731Z,73.66
2022-07-25T02:55:29.710Z,73.86
2022-07-25T02:56:31.971Z,75.28
2022-07-25T02:57:29.692Z,73.46
2022-07-25T02:58:29.712Z,73.05
2022-07-25T02:59:32.196Z,75.59
2022-07-25T03:00:29.680Z,73.25
2022-07-25T03:01:29.682Z,71.53
2022-07-25T03:02:29.631Z,71.84
2022-07-25T03:03:29.649Z,71.94
2022-07-25T03:04:29.684Z,70.42
2022-07-25T03:05:29.598Z,69.71
2022-07-25T03:06:29.572Z,70.21
2022-07-25T03:07:29.576Z,70.12
2022-07-25T03:08:29.564Z,68.90
2022-07-25T03:09:29.533Z,70.42
2022-07-25T03:10:29.520Z,71.03
2022-07-25T03:11:29.521Z,71.03
2022-07-25T03:12:29.497Z,69.81
2022-07-25T03:13:29.489Z,72.24
2022-07-25T03:14:29.469Z,71.03
2022-07-25T03:15:29.520Z,70.93
2022-07-25T03:16:29.514Z,71.53
2022-07-25T03:17:29.420Z,72.45
2022-07-25T03:18:29.431Z,70.52
2022-07-25T03:19:29.388Z,70.83
2022-07-25T03:20:29.378Z,72.34
2022-07-25T03:21:29.378Z,71.94
2022-07-25T03:22:29.372Z,72.75
2022-07-25T03:23:29.347Z,74.88
2022-07-25T03:24:29.335Z,77.92
2022-07-25T03:25:29.322Z,77.72
2022-07-25T03:26:29.311Z,78.22
2022-07-25T03:27:29.289Z,79.38
2022-07-25T03:28:29.318Z,77.75
2022-07-25T03:29:29.299Z,76.23
2022-07-25T03:30:29.298Z,75.93
2022-07-25T03:31:29.289Z,75.73
2022-07-25T03:32:29.227Z,75.01
2022-07-25T03:33:29.237Z,75.01
2022-07-25T03:34:29.211Z,74.71
2022-07-25T03:35:29.180Z,72.58
2022-07-25T03:36:29.189Z,73.97
2022-07-25T03:37:29.161Z,72.14
2022-07-25T03:38:29.158Z,75.59
2022-07-25T03:39:29.131Z,74.57
2022-07-25T03:40:29.184Z,75.28
2022-07-25T03:41:29.125Z,75.89
2022-07-25T03:42:32.256Z,76.70
2022-07-25T03:43:30.098Z,75.59
2022-07-25T03:44:29.079Z,73.46
2022-07-25T03:45:29.138Z,71.53
2022-07-25T03:46:29.093Z,71.13
2022-07-25T03:47:29.018Z,73.56
2022-07-25T03:48:29.064Z,74.68
2022-07-25T03:49:29.004Z,72.75
2022-07-25T03:50:29.034Z,74.98
2022-07-25T03:51:28.970Z,73.36
2022-07-25T03:52:28.997Z,71.33
2022-07-25T03:53:28.959Z,70.83
2022-07-25T03:54:28.958Z,71.64
2022-07-25T03:55:28.921Z,73.73
2022-07-25T03:56:28.924Z,73.43
2022-07-25T03:57:28.887Z,75.55
2022-07-25T03:58:28.896Z,76.16
2022-07-25T03:59:28.866Z,74.95
2022-07-25T04:00:28.857Z,73.73
2022-07-25T04:01:28.901Z,73.53
2022-07-25T04:02:28.895Z,72.61
2022-07-25T04:03:28.821Z,73.63
2022-07-25T04:04:28.807Z,72.81
2022-07-25T04:05:28.785Z,71.50
2022-07-25T04:06:28.776Z,70.69
2022-07-25T04:07:28.769Z,69.17
2022-07-25T04:08:28.768Z,69.04
2022-07-25T04:09:31.036Z,68.63
2022-07-25T04:10:29.729Z,69.34
2022-07-25T04:11:28.727Z,69.54
2022-07-25T04:12:28.701Z,69.54
2022-07-25T04:13:28.697Z,71.06
2022-07-25T04:14:28.668Z,71.88
2022-07-25T04:15:28.647Z,72.38
2022-07-25T04:16:28.647Z,74.87
2022-07-25T04:17:28.626Z,75.58
2022-07-25T04:18:28.991Z,75.58
2022-07-25T04:19:29.002Z,74.27
2022-07-25T04:20:28.609Z,74.27
2022-07-25T04:21:28.566Z,72.75
2022-07-25T04:22:28.578Z,71.44
2022-07-25T04:23:28.557Z,69.61
2022-07-25T04:24:28.538Z,71.80
2022-07-25T04:25:28.516Z,73.12
2022-07-25T04:26:28.506Z,74.03
2022-07-25T04:27:28.487Z,73.02
2022-07-25T04:28:28.516Z,70.69
2022-07-25T04:29:28.466Z,69.85
2022-07-25T04:30:28.476Z,71.37
2022-07-25T04:31:28.465Z,70.86
2022-07-25T04:32:28.447Z,71.84
2022-07-25T04:33:28.447Z,71.94
2022-07-25T04:34:28.396Z,71.03
2022-07-25T04:35:28.395Z,71.50
2022-07-25T04:36:28.375Z,72.27
2022-07-25T04:37:28.375Z,72.00
2022-07-25T04:38:28.361Z,71.47
2022-07-25T04:39:28.352Z,70.73
2022-07-25T04:40:28.335Z,69.45
2022-07-25T04:41:28.298Z,69.02
2022-07-25T04:42:28.296Z,68.15
2022-07-25T04:43:28.286Z,66.41
2022-07-25T04:44:28.266Z,65.57
2022-07-25T04:45:28.273Z,65.04
2022-07-25T04:46:28.237Z,65.71
2022-07-25T04:47:28.215Z,65.61
2022-07-25T04:48:28.290Z,65.08
2022-07-25T04:49:28.196Z,63.51
2022-07-25T04:50:28.186Z,63.11
2022-07-25T04:51:28.177Z,62.45
2022-07-25T04:52:28.157Z,61.42
2022-07-25T04:53:28.159Z,60.66
2022-07-25T04:54:28.126Z,60.24
2022-07-25T04:55:28.147Z,59.68
2022-07-25T04:56:28.106Z,58.45
2022-07-25T04:57:28.096Z,56.93
2022-07-25T04:58:28.088Z,57.30
2022-07-25T04:59:28.069Z,56.77
2022-07-25T05:00:28.047Z,56.55
2022-07-25T05:01:28.100Z,55.73
2022-07-25T05:02:28.092Z,54.71
2022-07-25T05:03:28.027Z,54.18
2022-07-25T05:04:27.997Z,54.16
2022-07-25T05:05:27.998Z,53.51
2022-07-25T05:06:27.988Z,52.19
2022-07-25T05:07:27.958Z,52.07
2022-07-25T05:08:27.945Z,50.73
2022-07-25T05:09:27.947Z,50.31
2022-07-25T05:10:27.925Z,49.59
2022-07-25T05:11:27.909Z,50.16
2022-07-25T05:12:27.896Z,48.14
2022-07-25T05:13:27.886Z,47.72
2022-07-25T05:14:27.880Z,47.69
2022-07-25T05:15:27.858Z,47.18
2022-07-25T05:16:27.876Z,46.04
2022-07-25T05:17:27.858Z,45.04
2022-07-25T05:18:27.818Z,45.04
2022-07-25T05:19:27.810Z,45.51
2022-07-25T05:20:27.789Z,43.82
2022-07-25T05:21:27.780Z,43.99
2022-07-25T05:22:28.517Z,44.46
2022-07-25T05:23:27.771Z,42.57
2022-07-25T05:24:27.789Z,42.75
2022-07-25T05:25:27.720Z,42.92
2022-07-25T05:26:27.724Z,41.82
2022-07-25T05:27:27.707Z,41.14
2022-07-25T05:28:27.691Z,41.02
2022-07-25T05:29:27.709Z,40.51
2022-07-25T05:30:27.695Z,40.09
2022-07-25T05:31:27.735Z,40.29
2022-07-25T05:32:27.632Z,40.17
2022-07-25T05:33:27.630Z,39.47
2022-07-25T05:34:27.632Z,39.06
2022-07-25T05:35:27.603Z,39.84
2022-07-25T05:36:27.585Z,37.57
2022-07-25T05:37:27.572Z,38.34
2022-07-25T05:38:27.571Z,37.75
2022-07-25T05:39:27.553Z,37.54
2022-07-25T05:40:27.531Z,37.54
2022-07-25T05:41:27.523Z,36.73
2022-07-25T05:42:27.503Z,37.30
2022-07-25T05:43:27.495Z,36.52
2022-07-25T05:44:27.486Z,36.13
2022-07-25T05:45:27.478Z,37.09
2022-07-25T05:46:27.556Z,35.24
2022-07-25T05:47:27.444Z,35.72
2022-07-25T05:48:27.454Z,35.72
2022-07-25T05:49:27.423Z,35.33
2022-07-25T05:50:27.406Z,35.80
2022-07-25T05:51:27.785Z,36.08
2022-07-25T05:52:27.451Z,35.30
2022-07-25T05:53:27.376Z,35.38
2022-07-25T05:54:27.549Z,34.68
2022-07-25T05:55:27.354Z,34.27
2022-07-25T05:56:27.347Z,34.35
2022-07-25T05:57:27.358Z,34.63
2022-07-25T05:58:29.914Z,35.11
2022-07-25T05:59:27.297Z,34.12
2022-07-25T06:00:27.285Z,33.81
2022-07-25T06:01:27.351Z,33.31
2022-07-25T06:02:27.358Z,32.62
2022-07-25T06:03:27.341Z,33.20
2022-07-25T06:04:27.480Z,31.55
2022-07-25T06:05:27.214Z,32.23
2022-07-25T06:06:27.226Z,32.42
2022-07-25T06:07:27.212Z,32.41
2022-07-25T06:08:27.179Z,32.12
2022-07-25T06:09:27.176Z,32.20
2022-07-25T06:10:27.257Z,32.20
2022-07-25T06:11:27.143Z,31.99
2022-07-25T06:12:27.130Z,31.20
2022-07-25T06:13:27.127Z,30.89
2022-07-25T06:14:27.111Z,30.89
2022-07-25T06:15:27.581Z,31.18
2022-07-25T06:16:27.163Z,30.49
2022-07-25T06:17:32.269Z,29.61
2022-07-25T06:18:28.049Z,30.20
2022-07-25T06:19:27.048Z,30.51
2022-07-25T06:20:27.078Z,29.83
2022-07-25T06:21:27.018Z,30.89
2022-07-25T06:22:27.000Z,30.79
2022-07-25T06:23:27.598Z,31.26
2022-07-25T06:24:26.992Z,29.71
2022-07-25T06:25:26.971Z,30.10
2022-07-25T06:26:26.949Z,30.88
2022-07-25T06:27:29.361Z,30.08
2022-07-25T06:28:26.932Z,30.36
2022-07-25T06:29:26.933Z,29.77
2022-07-25T06:30:26.910Z,30.04
2022-07-25T06:31:26.931Z,29.94
2022-07-25T06:32:26.885Z,29.83
2022-07-25T06:33:26.882Z,29.53
2022-07-25T06:34:28.777Z,28.84
2022-07-25T06:35:26.846Z,28.64
2022-07-25T06:36:32.862Z,28.36
2022-07-25T06:37:27.817Z,28.73
2022-07-25T06:38:26.813Z,29.02
2022-07-25T06:39:26.817Z,28.33
2022-07-25T06:40:26.818Z,28.81
2022-07-25T06:41:26.776Z,28.04
2022-07-25T06:42:26.766Z,28.12
2022-07-25T06:43:26.763Z,27.26
2022-07-25T06:44:26.747Z,28.03
2022-07-25T06:45:26.795Z,27.93
2022-07-25T06:46:26.764Z,27.55
2022-07-25T06:47:26.718Z,27.34
2022-07-25T06:48:26.808Z,27.15
2022-07-25T06:49:26.680Z,27.62
2022-07-25T06:50:26.672Z,27.23
2022-07-25T06:51:26.657Z,27.71
2022-07-25T06:52:26.637Z,26.75
2022-07-25T06:53:26.641Z,26.83
2022-07-25T06:54:26.622Z,25.87
2022-07-25T06:55:26.601Z,27.22
2022-07-25T06:56:26.628Z,27.02
2022-07-25T06:57:26.578Z,27.69
2022-07-25T06:58:26.586Z,26.72
2022-07-25T06:59:26.550Z,26.53
2022-07-25T07:00:26.609Z,27.27
2022-07-25T07:01:26.644Z,26.89
2022-07-25T07:02:26.540Z,25.53
2022-07-25T07:03:26.580Z,25.81
2022-07-25T07:04:26.491Z,25.42
2022-07-25T07:05:26.478Z,24.55
2022-07-25T07:06:26.475Z,25.79
2022-07-25T07:07:26.453Z,25.79
2022-07-25T07:08:26.459Z,24.64
2022-07-25T07:09:26.430Z,25.12
2022-07-25T07:10:26.423Z,25.98
2022-07-25T07:11:26.404Z,25.98
2022-07-25T07:12:26.398Z,25.98
2022-07-25T07:13:26.391Z,25.49
2022-07-25T07:14:26.370Z,24.54
2022-07-25T07:15:26.352Z,24.73
2022-07-25T07:16:26.412Z,25.98
2022-07-25T07:17:26.332Z,25.30
2022-07-25T07:18:26.333Z,25.11
2022-07-25T07:19:26.323Z,25.38
2022-07-25T07:20:26.304Z,25.29
2022-07-25T07:21:26.326Z,24.60
2022-07-25T07:22:26.295Z,24.70
2022-07-25T07:23:26.273Z,24.90
2022-07-25T07:24:26.243Z,24.71
2022-07-25T07:25:28.330Z,25.10
2022-07-25T07:26:26.235Z,24.60
2022-07-25T07:27:26.808Z,23.74
2022-07-25T07:28:26.217Z,24.14
2022-07-25T07:29:26.214Z,23.85
2022-07-25T07:30:52.214Z,25.00
2022-07-25T07:31:27.231Z,24.33
2022-07-25T07:32:26.158Z,24.62
2022-07-25T07:33:26.193Z,24.51
2022-07-25T07:34:26.164Z,24.51
2022-07-25T07:35:27.464Z,24.60
2022-07-25T07:36:26.116Z,24.03
2022-07-25T07:37:26.103Z,23.84
2022-07-25T07:38:26.108Z,24.70
2022-07-25T07:39:26.100Z,24.22
2022-07-25T07:40:26.059Z,23.74
2022-07-25T07:41:26.047Z,24.81
2022-07-25T07:42:26.046Z,24.04
2022-07-25T07:43:30.097Z,24.24
2022-07-25T07:44:26.024Z,24.34
2022-07-25T07:45:26.007Z,24.44
2022-07-25T07:46:26.037Z,24.26
2022-07-25T07:47:25.967Z,24.16
2022-07-25T07:48:25.988Z,24.45
2022-07-25T07:49:26.030Z,24.45
2022-07-25T07:50:25.975Z,24.26
2022-07-25T07:51:25.934Z,24.16
2022-07-25T07:52:25.916Z,23.97
2022-07-25T07:53:25.917Z,24.45
2022-07-25T07:54:25.901Z,23.88
2022-07-25T07:55:25.880Z,24.35
2022-07-25T07:56:25.879Z,23.77
2022-07-25T07:57:25.858Z,23.77
2022-07-25T07:58:25.881Z,25.11
2022-07-25T07:59:25.840Z,24.90
2022-07-25T08:00:25.829Z,24.04
2022-07-25T08:01:25.871Z,24.89
2022-07-25T08:02:25.880Z,24.60
2022-07-25T08:03:25.876Z,23.83
2022-07-25T08:04:25.773Z,23.06
2022-07-25T08:05:25.772Z,24.40
2022-07-25T08:06:25.761Z,24.30
2022-07-25T08:07:25.740Z,23.54
2022-07-25T08:08:30.742Z,24.21
2022-07-25T08:09:26.745Z,24.03
2022-07-25T08:10:25.715Z,23.74
2022-07-25T08:11:25.692Z,24.22
2022-07-25T08:12:25.682Z,23.74
2022-07-25T08:13:25.698Z,23.94
2022-07-25T08:14:25.663Z,24.14
2022-07-25T08:15:25.642Z,24.73
2022-07-25T08:16:25.697Z,24.73
2022-07-25T08:17:28.623Z,24.54
2022-07-25T08:18:25.643Z,24.63
2022-07-25T08:19:25.593Z,24.05
2022-07-25T08:20:38.041Z,23.00
2022-07-25T08:21:26.575Z,23.88
2022-07-25T08:22:25.567Z,23.57
2022-07-25T08:23:25.566Z,23.11
2022-07-25T08:24:25.544Z,24.07
2022-07-25T08:25:25.534Z,24.35
2022-07-25T08:26:25.525Z,24.64
2022-07-25T08:27:25.505Z,23.19
2022-07-25T08:28:25.514Z,24.18
2022-07-25T08:29:28.229Z,25.35
2022-07-25T08:30:25.474Z,25.64
2022-07-25T08:31:25.495Z,25.64
2022-07-25T08:32:25.436Z,24.77
2022-07-25T08:33:25.466Z,24.95
2022-07-25T08:34:25.432Z,24.76
2022-07-25T08:35:25.421Z,24.01
2022-07-25T08:36:25.409Z,23.43
2022-07-25T08:37:25.376Z,24.30
2022-07-25T08:38:25.388Z,24.51
2022-07-25T08:39:25.367Z,24.70
2022-07-25T08:40:25.357Z,24.51
2022-07-25T08:41:25.366Z,25.01
2022-07-25T08:42:25.376Z,26.25
2022-07-25T08:43:25.323Z,25.29
2022-07-25T08:44:25.303Z,25.48
2022-07-25T08:45:25.278Z,25.29
2022-07-25T08:46:25.360Z,25.10
2022-07-25T08:47:25.261Z,25.20
2022-07-25T08:48:25.313Z,25.67
2022-07-25T08:49:25.240Z,26.05
2022-07-25T08:50:25.249Z,25.09
2022-07-25T08:51:25.210Z,24.99
2022-07-25T08:52:25.210Z,25.58
2022-07-25T08:53:33.895Z,25.20
2022-07-25T08:54:26.202Z,25.39
2022-07-25T08:55:25.177Z,25.58
2022-07-25T08:56:25.170Z,25.78
2022-07-25T08:57:25.141Z,25.01
2022-07-25T08:58:25.155Z,24.54
2022-07-25T08:59:25.120Z,25.79
2022-07-25T09:00:25.118Z,24.35
2022-07-25T09:01:25.245Z,25.03
2022-07-25T09:02:25.269Z,24.95
2022-07-25T09:03:25.136Z,26.39
2022-07-25T09:04:25.062Z,26.20
2022-07-25T09:05:25.057Z,25.52
2022-07-25T09:06:25.056Z,25.43
2022-07-25T09:07:25.032Z,24.86
2022-07-25T09:08:25.034Z,26.50
2022-07-25T09:09:25.015Z,25.44
2022-07-25T09:10:25.014Z,27.85
2022-07-25T09:11:24.975Z,26.59
2022-07-25T09:12:26.169Z,28.03
2022-07-25T09:13:24.965Z,26.10
2022-07-25T09:14:24.945Z,25.52
2022-07-25T09:15:24.990Z,26.39
2022-07-25T09:16:24.959Z,25.62
2022-07-25T09:17:24.988Z,27.45
2022-07-25T09:18:24.916Z,26.00
2022-07-25T09:19:24.897Z,26.67
2022-07-25T09:20:24.877Z,26.86
2022-07-25T09:21:24.857Z,26.47
2022-07-25T09:22:24.856Z,26.18
2022-07-25T09:23:24.872Z,25.43
2022-07-25T09:24:24.864Z,25.04
2022-07-25T09:25:24.826Z,26.58
2022-07-25T09:26:24.815Z,25.52
2022-07-25T09:27:24.787Z,24.66
2022-07-25T09:28:24.806Z,26.00
2022-07-25T09:29:24.798Z,27.26
2022-07-25T09:30:24.768Z,24.75
2022-07-25T09:31:24.805Z,25.91
2022-07-25T09:32:24.738Z,26.11
2022-07-25T09:33:24.732Z,23.99
2022-07-25T09:34:25.685Z,25.82
2022-07-25T09:35:24.726Z,25.15
2022-07-25T09:36:24.696Z,27.38
2022-07-25T09:37:24.668Z,27.00
2022-07-25T09:38:24.679Z,27.00
2022-07-25T09:39:24.668Z,26.43
2022-07-25T09:40:24.651Z,26.81
2022-07-25T09:41:24.629Z,27.38
2022-07-25T09:42:24.618Z,27.86
2022-07-25T09:43:24.618Z,26.12
2022-07-25T09:44:24.600Z,25.16
2022-07-25T09:45:29.586Z,26.22
2022-07-25T09:46:25.626Z,25.55
2022-07-25T09:47:24.562Z,27.19
2022-07-25T09:48:24.626Z,27.28
2022-07-25T09:49:24.553Z,26.53
2022-07-25T09:50:24.568Z,28.07
2022-07-25T09:51:24.501Z,26.14
2022-07-25T09:52:24.504Z,25.46
2022-07-25T09:53:24.501Z,24.97
2022-07-25T09:54:24.483Z,26.42
2022-07-25T09:55:24.490Z,28.25
2022-07-25T09:56:24.501Z,27.00
2022-07-25T09:57:24.463Z,28.15
2022-07-25T09:58:24.443Z,25.16
2022-07-25T09:59:24.421Z,26.80
2022-07-25T10:00:24.410Z,27.08
2022-07-25T10:01:24.469Z,24.96
2022-07-25T10:02:24.416Z,26.11
2022-07-25T10:03:24.394Z,24.09
2022-07-25T10:04:24.364Z,26.02
2022-07-25T10:05:24.354Z,27.66
2022-07-25T10:06:24.337Z,23.61
2022-07-25T10:07:29.449Z,25.54
2022-07-25T10:08:25.345Z,26.39
2022-07-25T10:09:24.323Z,26.48
2022-07-25T10:10:24.329Z,25.82
2022-07-25T10:11:24.284Z,23.99
2022-07-25T10:12:24.271Z,24.67
2022-07-25T10:13:24.274Z,25.44
2022-07-25T10:14:24.256Z,25.44
2022-07-25T10:15:24.246Z,27.08
2022-07-25T10:16:24.252Z,25.92
2022-07-25T10:17:24.267Z,26.59
2022-07-25T10:18:24.207Z,25.71
2022-07-25T10:19:24.199Z,26.00
2022-07-25T10:20:24.172Z,26.48
2022-07-25T10:21:27.433Z,24.66
2022-07-25T10:22:46.566Z,25.23
2022-07-25T10:23:25.155Z,25.13
2022-07-25T10:24:24.139Z,23.88
2022-07-25T10:25:24.142Z,24.66
2022-07-25T10:26:24.126Z,26.00
2022-07-25T10:27:24.098Z,25.52
2022-07-25T10:28:24.078Z,23.02
2022-07-25T10:29:24.090Z,24.67
2022-07-25T10:30:24.062Z,23.32
2022-07-25T10:31:24.091Z,24.48
2022-07-25T10:32:24.047Z,24.66
2022-07-25T10:33:24.051Z,23.03
2022-07-25T10:34:24.051Z,26.50
2022-07-25T10:35:23.999Z,27.94
2022-07-25T10:36:23.984Z,26.69
2022-07-25T10:37:23.989Z,27.37
2022-07-25T10:38:23.963Z,25.54
2022-07-25T10:39:24.037Z,24.57
2022-07-25T10:40:23.947Z,26.79
2022-07-25T10:41:23.939Z,24.48
2022-07-25T10:42:23.931Z,22.93
2022-07-25T10:43:23.920Z,25.44
2022-07-25T10:44:23.913Z,23.61
2022-07-25T10:45:23.882Z,27.35
2022-07-25T10:46:23.960Z,25.62
2022-07-25T10:47:23.865Z,23.88
2022-07-25T10:48:23.862Z,26.87
2022-07-25T10:49:31.930Z,24.08
2022-07-25T10:50:53.543Z,27.75
2022-07-25T10:51:24.815Z,25.34
2022-07-25T10:52:23.793Z,24.48
2022-07-25T10:53:23.804Z,26.87
2022-07-25T10:54:23.793Z,29.38
2022-07-25T10:55:23.770Z,27.17
2022-07-25T10:56:23.753Z,27.27
2022-07-25T10:57:27.155Z,24.38
2022-07-25T10:58:24.724Z,24.86
2022-07-25T10:59:23.742Z,24.28
2022-07-25T11:00:23.729Z,25.44
2022-07-25T11:01:23.755Z,24.09
2022-07-25T11:02:23.725Z,24.57
2022-07-25T11:03:23.675Z,22.84
2022-07-25T11:04:23.667Z,22.93
2022-07-25T11:05:23.648Z,26.11
2022-07-25T11:06:23.635Z,26.11
2022-07-25T11:07:23.632Z,25.34
2022-07-25T11:08:23.606Z,22.64
2022-07-25T11:09:27.218Z,24.96
2022-07-25T11:10:23.618Z,25.92
2022-07-25T11:11:23.577Z,27.85
2022-07-25T11:12:23.555Z,25.34
2022-07-25T11:13:23.549Z,24.86
2022-07-25T11:14:23.551Z,23.03
2022-07-25T11:15:23.537Z,22.85
2022-07-25T11:16:23.568Z,24.69
2022-07-25T11:17:23.500Z,24.50
2022-07-25T11:18:23.488Z,24.60
2022-07-25T11:19:23.499Z,25.46
2022-07-25T11:20:23.463Z,26.33
2022-07-25T11:21:23.460Z,26.91
2022-07-25T11:22:23.450Z,23.72
2022-07-25T11:23:23.470Z,23.15
2022-07-25T11:24:23.442Z,24.60
2022-07-25T11:25:23.418Z,23.34
2022-07-25T11:26:23.391Z,25.85
2022-07-25T11:27:23.388Z,27.20
2022-07-25T11:28:23.372Z,25.56
2022-07-25T11:29:23.372Z,24.98
2022-07-25T11:30:23.342Z,27.09
2022-07-25T11:31:23.400Z,25.74
2022-07-25T11:32:23.323Z,24.20
2022-07-25T11:33:23.323Z,27.38
2022-07-25T11:34:23.323Z,25.63
2022-07-25T11:35:23.301Z,24.67
2022-07-25T11:36:23.273Z,27.46
2022-07-25T11:37:23.273Z,27.27
2022-07-25T11:38:23.255Z,26.59
2022-07-25T11:39:23.265Z,24.19
2022-07-25T11:40:23.252Z,22.93
2022-07-25T11:41:23.245Z,27.76
2022-07-25T11:42:23.242Z,27.00
2022-07-25T11:43:23.206Z,27.96
2022-07-25T11:44:23.227Z,25.84
2022-07-25T11:45:23.188Z,27.76
2022-07-25T11:46:23.221Z,27.57
2022-07-25T11:47:23.171Z,27.94
2022-07-25T11:48:23.135Z,26.11
2022-07-25T11:49:23.170Z,23.14
2022-07-25T11:50:23.115Z,24.49
2022-07-25T11:51:23.117Z,23.33
2022-07-25T11:52:23.108Z,22.46
2022-07-25T11:53:23.088Z,22.94
2022-07-25T11:54:23.087Z,24.02
2022-07-25T11:55:23.056Z,25.35
2022-07-25T11:56:41.877Z,24.10
2022-07-25T11:57:24.043Z,24.60
2022-07-25T11:58:23.028Z,25.27
2022-07-25T11:59:23.039Z,22.47
2022-07-25T12:00:23.015Z,22.76
2022-07-25T12:01:23.008Z,23.15
2022-07-25T12:02:23.031Z,23.15
2022-07-25T12:03:23.119Z,23.55
2022-07-25T12:04:22.957Z,23.74
2022-07-25T12:05:22.948Z,23.07
2022-07-25T12:06:22.938Z,24.71
2022-07-25T12:07:22.922Z,24.41
2022-07-25T12:08:22.923Z,27.80
2022-07-25T12:09:22.916Z,28.07
2022-07-25T12:10:22.882Z,25.08
2022-07-25T12:11:22.872Z,24.11
2022-07-25T12:12:22.871Z,23.05
2022-07-25T12:13:22.851Z,23.05
2022-07-25T12:14:22.859Z,24.13
2022-07-25T12:15:22.825Z,25.18
2022-07-25T12:16:22.879Z,27.60
2022-07-25T12:17:22.819Z,22.29
2022-07-25T12:18:22.818Z,22.78
2022-07-25T12:19:22.791Z,25.39
2022-07-25T12:20:22.761Z,28.87
2022-07-25T12:21:22.753Z,25.28
2022-07-25T12:22:22.750Z,24.22
2022-07-25T12:23:22.779Z,27.80
2022-07-25T12:24:22.731Z,26.73
2022-07-25T12:25:26.332Z,24.03
2022-07-25T12:26:23.744Z,24.32
2022-07-25T12:27:22.693Z,25.76
2022-07-25T12:28:22.688Z,24.02
2022-07-25T12:29:22.671Z,23.35
2022-07-25T12:30:22.646Z,25.57
2022-07-25T12:31:22.746Z,23.55
2022-07-25T12:32:22.634Z,23.46
2022-07-25T12:33:22.624Z,24.91
2022-07-25T12:34:22.625Z,23.94
2022-07-25T12:35:22.596Z,23.56
2022-07-25T12:36:22.577Z,24.44
2022-07-25T12:37:22.565Z,24.54
2022-07-25T12:38:22.582Z,26.95
2022-07-25T12:39:22.573Z,24.52
2022-07-25T12:40:22.527Z,25.39
2022-07-25T12:41:22.554Z,25.78
2022-07-25T12:42:22.512Z,28.48
2022-07-25T12:43:22.510Z,24.51
2022-07-25T12:44:22.492Z,23.74
2022-07-25T12:45:22.468Z,24.14
2022-07-25T12:46:22.498Z,23.94
2022-07-25T12:47:22.450Z,25.68
2022-07-25T12:48:22.442Z,25.10
2022-07-25T12:49:22.476Z,23.85
2022-07-25T12:50:22.423Z,25.29
2022-07-25T12:51:22.474Z,25.29
2022-07-25T12:52:22.401Z,23.75